sensor_id;sensor_type;location;lat;lon;timestamp;temperature;humidity
24744;DHT22;12844;52.110;5.548;2023-11-19T00:00:17;18.20;55.40
24744;DHT22;12844;52.110;5.548;2023-11-19T00:02:42;18.20;55.40
24744;DHT22;12844;52.110;5.548;2023-11-19T00:05:09;18.20;55.50
24744;DHT22;12844;52.110;5.548;2023-11-19T00:07:36;18.20;55.40
24744;DHT22;12844;52.110;5.548;2023-11-19T00:10:03;18.20;55.50
24744;DHT22;12844;52.110;5.548;2023-11-19T00:12:32;18.20;55.50
24744;DHT22;12844;52.110;5.548;2023-11-19T00:14:58;18.20;55.50
24744;DHT22;12844;52.110;5.548;2023-11-19T00:17:23;18.20;55.50
24744;DHT22;12844;52.110;5.548;2023-11-19T00:19:49;18.20;55.50
24744;DHT22;12844;52.110;5.548;2023-11-19T00:22:16;18.20;55.50
24744;DHT22;12844;52.110;5.548;2023-11-19T00:24:42;18.20;55.60
24744;DHT22;12844;52.110;5.548;2023-11-19T00:27:08;18.20;55.60
24744;DHT22;12844;52.110;5.548;2023-11-19T00:29:33;18.20;55.60
24744;DHT22;12844;52.110;5.548;2023-11-19T00:31:59;18.20;55.50
24744;DHT22;12844;52.110;5.548;2023-11-19T00:34:24;18.20;55.50
24744;DHT22;12844;52.110;5.548;2023-11-19T00:36:50;18.20;55.60
24744;DHT22;12844;52.110;5.548;2023-11-19T00:39:16;18.20;55.50
24744;DHT22;12844;52.110;5.548;2023-11-19T00:41:42;18.20;55.50
24744;DHT22;12844;52.110;5.548;2023-11-19T00:44:08;18.20;55.60
24744;DHT22;12844;52.110;5.548;2023-11-19T00:46:34;18.20;55.50
24744;DHT22;12844;52.110;5.548;2023-11-19T00:48:59;18.20;55.50
24744;DHT22;12844;52.110;5.548;2023-11-19T00:51:26;18.20;55.60
24744;DHT22;12844;52.110;5.548;2023-11-19T00:53:52;18.20;55.60
24744;DHT22;12844;52.110;5.548;2023-11-19T00:56:21;18.20;55.50
24744;DHT22;12844;52.110;5.548;2023-11-19T00:58:46;18.20;55.60
24744;DHT22;12844;52.110;5.548;2023-11-19T01:01:13;18.20;55.60
24744;DHT22;12844;52.110;5.548;2023-11-19T01:03:38;18.20;55.60
24744;DHT22;12844;52.110;5.548;2023-11-19T01:06:04;18.20;55.70
24744;DHT22;12844;52.110;5.548;2023-11-19T01:08:30;18.20;55.70
24744;DHT22;12844;52.110;5.548;2023-11-19T01:10:55;18.20;55.70
24744;DHT22;12844;52.110;5.548;2023-11-19T01:13:21;18.20;55.70
24744;DHT22;12844;52.110;5.548;2023-11-19T01:15:47;18.20;55.70
24744;DHT22;12844;52.110;5.548;2023-11-19T01:18:13;18.20;55.70
24744;DHT22;12844;52.110;5.548;2023-11-19T01:20:39;18.20;55.70
24744;DHT22;12844;52.110;5.548;2023-11-19T01:23:04;18.20;55.60
24744;DHT22;12844;52.110;5.548;2023-11-19T01:25:30;18.20;55.60
24744;DHT22;12844;52.110;5.548;2023-11-19T01:27:56;18.20;55.60
24744;DHT22;12844;52.110;5.548;2023-11-19T01:30:24;18.20;55.60
24744;DHT22;12844;52.110;5.548;2023-11-19T01:32:50;18.20;55.60
24744;DHT22;12844;52.110;5.548;2023-11-19T01:35:15;18.20;55.60
24744;DHT22;12844;52.110;5.548;2023-11-19T01:37:41;18.20;55.60
24744;DHT22;12844;52.110;5.548;2023-11-19T01:40:07;18.20;55.70
24744;DHT22;12844;52.110;5.548;2023-11-19T01:42:37;18.20;55.70
24744;DHT22;12844;52.110;5.548;2023-11-19T01:45:04;18.20;55.70
24744;DHT22;12844;52.110;5.548;2023-11-19T01:47:32;18.20;55.70
24744;DHT22;12844;52.110;5.548;2023-11-19T01:49:59;18.20;55.70
24744;DHT22;12844;52.110;5.548;2023-11-19T01:52:25;18.20;55.70
24744;DHT22;12844;52.110;5.548;2023-11-19T01:54:53;18.20;55.70
24744;DHT22;12844;52.110;5.548;2023-11-19T01:57:20;18.20;55.70
24744;DHT22;12844;52.110;5.548;2023-11-19T01:59:47;18.20;55.80
24744;DHT22;12844;52.110;5.548;2023-11-19T02:02:13;18.20;55.80
24744;DHT22;12844;52.110;5.548;2023-11-19T02:04:39;18.20;55.70
24744;DHT22;12844;52.110;5.548;2023-11-19T02:07:06;18.20;55.80
24744;DHT22;12844;52.110;5.548;2023-11-19T02:09:32;18.20;55.80
24744;DHT22;12844;52.110;5.548;2023-11-19T02:11:57;18.20;55.80
24744;DHT22;12844;52.110;5.548;2023-11-19T02:14:25;18.20;55.80
24744;DHT22;12844;52.110;5.548;2023-11-19T02:16:51;18.20;55.80
24744;DHT22;12844;52.110;5.548;2023-11-19T02:19:19;18.20;55.80
24744;DHT22;12844;52.110;5.548;2023-11-19T02:21:45;18.20;55.80
24744;DHT22;12844;52.110;5.548;2023-11-19T02:24:11;18.20;55.80
24744;DHT22;12844;52.110;5.548;2023-11-19T02:26:44;18.20;55.80
24744;DHT22;12844;52.110;5.548;2023-11-19T02:29:12;18.20;55.80
24744;DHT22;12844;52.110;5.548;2023-11-19T02:31:38;18.20;55.80
24744;DHT22;12844;52.110;5.548;2023-11-19T02:34:04;18.20;55.80
24744;DHT22;12844;52.110;5.548;2023-11-19T02:36:31;18.20;55.80
24744;DHT22;12844;52.110;5.548;2023-11-19T02:38:58;18.20;55.80
24744;DHT22;12844;52.110;5.548;2023-11-19T02:41:23;18.20;55.80
24744;DHT22;12844;52.110;5.548;2023-11-19T02:43:49;18.20;55.80
24744;DHT22;12844;52.110;5.548;2023-11-19T02:46:15;18.20;55.80
24744;DHT22;12844;52.110;5.548;2023-11-19T02:48:42;18.20;55.80
24744;DHT22;12844;52.110;5.548;2023-11-19T02:51:09;18.20;55.80
24744;DHT22;12844;52.110;5.548;2023-11-19T02:53:35;18.20;55.80
24744;DHT22;12844;52.110;5.548;2023-11-19T02:56:02;18.20;55.80
24744;DHT22;12844;52.110;5.548;2023-11-19T02:58:37;18.20;55.80
24744;DHT22;12844;52.110;5.548;2023-11-19T03:01:02;18.20;55.80
24744;DHT22;12844;52.110;5.548;2023-11-19T03:03:38;18.20;55.80
24744;DHT22;12844;52.110;5.548;2023-11-19T03:06:06;18.10;55.90
24744;DHT22;12844;52.110;5.548;2023-11-19T03:08:34;18.20;55.90
24744;DHT22;12844;52.110;5.548;2023-11-19T03:11:00;18.20;56.50
24744;DHT22;12844;52.110;5.548;2023-11-19T03:13:26;18.10;55.90
24744;DHT22;12844;52.110;5.548;2023-11-19T03:15:52;18.20;55.90
24744;DHT22;12844;52.110;5.548;2023-11-19T03:18:19;18.20;55.90
24744;DHT22;12844;52.110;5.548;2023-11-19T03:20:46;18.10;55.90
24744;DHT22;12844;52.110;5.548;2023-11-19T03:23:12;18.10;55.90
24744;DHT22;12844;52.110;5.548;2023-11-19T03:25:37;18.10;55.90
24744;DHT22;12844;52.110;5.548;2023-11-19T03:28:03;18.10;55.80
24744;DHT22;12844;52.110;5.548;2023-11-19T03:30:30;18.10;55.90
24744;DHT22;12844;52.110;5.548;2023-11-19T03:32:57;18.20;55.90
24744;DHT22;12844;52.110;5.548;2023-11-19T03:35:23;18.10;55.90
24744;DHT22;12844;52.110;5.548;2023-11-19T03:37:50;18.10;55.90
24744;DHT22;12844;52.110;5.548;2023-11-19T03:40:16;18.20;55.90
24744;DHT22;12844;52.110;5.548;2023-11-19T03:42:42;18.20;55.90
24744;DHT22;12844;52.110;5.548;2023-11-19T03:45:09;18.10;55.90
24744;DHT22;12844;52.110;5.548;2023-11-19T03:47:35;18.10;55.90
24744;DHT22;12844;52.110;5.548;2023-11-19T03:50:01;18.20;55.90
24744;DHT22;12844;52.110;5.548;2023-11-19T03:52:27;18.20;55.90
24744;DHT22;12844;52.110;5.548;2023-11-19T03:54:53;18.10;55.90
24744;DHT22;12844;52.110;5.548;2023-11-19T03:57:20;18.10;55.90
24744;DHT22;12844;52.110;5.548;2023-11-19T03:59:46;18.10;55.90
24744;DHT22;12844;52.110;5.548;2023-11-19T04:02:12;18.10;55.90
24744;DHT22;12844;52.110;5.548;2023-11-19T04:04:38;18.10;55.90
24744;DHT22;12844;52.110;5.548;2023-11-19T04:07:04;18.10;56.00
24744;DHT22;12844;52.110;5.548;2023-11-19T04:09:30;18.10;55.90
24744;DHT22;12844;52.110;5.548;2023-11-19T04:11:58;18.10;55.90
24744;DHT22;12844;52.110;5.548;2023-11-19T04:14:24;18.10;56.50
24744;DHT22;12844;52.110;5.548;2023-11-19T04:16:49;18.10;55.80
24744;DHT22;12844;52.110;5.548;2023-11-19T04:19:16;18.10;55.90
24744;DHT22;12844;52.110;5.548;2023-11-19T04:21:42;18.10;55.90
24744;DHT22;12844;52.110;5.548;2023-11-19T04:24:08;18.10;55.90
24744;DHT22;12844;52.110;5.548;2023-11-19T04:26:34;18.10;55.90
24744;DHT22;12844;52.110;5.548;2023-11-19T04:28:59;18.10;55.90
24744;DHT22;12844;52.110;5.548;2023-11-19T04:31:29;18.10;56.00
24744;DHT22;12844;52.110;5.548;2023-11-19T04:33:56;18.10;55.90
24744;DHT22;12844;52.110;5.548;2023-11-19T04:36:22;18.10;55.90
24744;DHT22;12844;52.110;5.548;2023-11-19T04:38:50;18.10;56.00
24744;DHT22;12844;52.110;5.548;2023-11-19T04:41:16;18.10;55.90
24744;DHT22;12844;52.110;5.548;2023-11-19T04:43:41;18.10;55.90
24744;DHT22;12844;52.110;5.548;2023-11-19T04:46:07;18.10;56.60
24744;DHT22;12844;52.110;5.548;2023-11-19T04:48:34;18.10;55.90
24744;DHT22;12844;52.110;5.548;2023-11-19T04:51:00;18.10;56.00
24744;DHT22;12844;52.110;5.548;2023-11-19T04:53:25;18.10;56.60
24744;DHT22;12844;52.110;5.548;2023-11-19T04:55:51;18.10;56.00
24744;DHT22;12844;52.110;5.548;2023-11-19T04:58:17;18.00;55.90
24744;DHT22;12844;52.110;5.548;2023-11-19T05:00:43;18.10;56.00
24744;DHT22;12844;52.110;5.548;2023-11-19T05:03:09;18.10;56.10
24744;DHT22;12844;52.110;5.548;2023-11-19T05:05:34;18.10;56.00
24744;DHT22;12844;52.110;5.548;2023-11-19T05:08:00;18.00;56.00
24744;DHT22;12844;52.110;5.548;2023-11-19T05:10:25;18.10;56.00
24744;DHT22;12844;52.110;5.548;2023-11-19T05:12:51;18.00;56.00
24744;DHT22;12844;52.110;5.548;2023-11-19T05:15:17;18.00;56.00
24744;DHT22;12844;52.110;5.548;2023-11-19T05:17:43;18.00;56.00
24744;DHT22;12844;52.110;5.548;2023-11-19T05:20:09;18.10;56.00
24744;DHT22;12844;52.110;5.548;2023-11-19T05:22:42;18.00;56.00
24744;DHT22;12844;52.110;5.548;2023-11-19T05:25:08;18.00;56.00
24744;DHT22;12844;52.110;5.548;2023-11-19T05:27:35;18.00;56.00
24744;DHT22;12844;52.110;5.548;2023-11-19T05:30:02;18.00;56.00
24744;DHT22;12844;52.110;5.548;2023-11-19T05:32:27;18.00;56.00
24744;DHT22;12844;52.110;5.548;2023-11-19T05:34:53;18.00;56.00
24744;DHT22;12844;52.110;5.548;2023-11-19T05:37:18;18.00;56.00
24744;DHT22;12844;52.110;5.548;2023-11-19T05:39:45;18.00;56.00
24744;DHT22;12844;52.110;5.548;2023-11-19T05:42:12;18.00;56.00
24744;DHT22;12844;52.110;5.548;2023-11-19T05:44:37;18.00;56.00
24744;DHT22;12844;52.110;5.548;2023-11-19T05:47:03;18.00;56.10
24744;DHT22;12844;52.110;5.548;2023-11-19T05:49:29;18.00;56.00
24744;DHT22;12844;52.110;5.548;2023-11-19T05:51:55;18.00;56.10
24744;DHT22;12844;52.110;5.548;2023-11-19T05:54:21;18.00;56.00
24744;DHT22;12844;52.110;5.548;2023-11-19T05:56:48;18.00;56.00
24744;DHT22;12844;52.110;5.548;2023-11-19T05:59:14;18.00;56.00
24744;DHT22;12844;52.110;5.548;2023-11-19T06:01:43;18.00;56.00
24744;DHT22;12844;52.110;5.548;2023-11-19T06:04:09;18.00;56.10
24744;DHT22;12844;52.110;5.548;2023-11-19T06:06:34;17.90;56.00
24744;DHT22;12844;52.110;5.548;2023-11-19T06:09:00;18.00;56.10
24744;DHT22;12844;52.110;5.548;2023-11-19T06:11:27;18.00;56.10
24744;DHT22;12844;52.110;5.548;2023-11-19T06:13:53;18.00;56.10
24744;DHT22;12844;52.110;5.548;2023-11-19T06:16:19;18.00;56.00
24744;DHT22;12844;52.110;5.548;2023-11-19T06:18:44;18.00;56.10
24744;DHT22;12844;52.110;5.548;2023-11-19T06:21:11;18.00;56.10
24744;DHT22;12844;52.110;5.548;2023-11-19T06:23:37;18.00;56.10
24744;DHT22;12844;52.110;5.548;2023-11-19T06:26:02;18.00;56.10
24744;DHT22;12844;52.110;5.548;2023-11-19T06:28:28;17.90;56.70
24744;DHT22;12844;52.110;5.548;2023-11-19T06:30:54;18.00;56.10
24744;DHT22;12844;52.110;5.548;2023-11-19T06:33:19;18.00;56.00
24744;DHT22;12844;52.110;5.548;2023-11-19T06:35:45;18.00;56.00
24744;DHT22;12844;52.110;5.548;2023-11-19T06:38:11;17.90;56.00
24744;DHT22;12844;52.110;5.548;2023-11-19T06:40:36;18.00;56.00
24744;DHT22;12844;52.110;5.548;2023-11-19T06:43:03;17.90;56.00
24744;DHT22;12844;52.110;5.548;2023-11-19T06:45:33;18.00;56.10
24744;DHT22;12844;52.110;5.548;2023-11-19T06:48:05;18.00;56.10
24744;DHT22;12844;52.110;5.548;2023-11-19T06:50:32;18.00;56.10
24744;DHT22;12844;52.110;5.548;2023-11-19T06:52:58;17.90;56.10
24744;DHT22;12844;52.110;5.548;2023-11-19T06:55:23;17.90;56.10
24744;DHT22;12844;52.110;5.548;2023-11-19T06:57:49;17.90;56.10
24744;DHT22;12844;52.110;5.548;2023-11-19T07:00:14;17.90;56.10
24744;DHT22;12844;52.110;5.548;2023-11-19T07:02:40;17.90;56.10
24744;DHT22;12844;52.110;5.548;2023-11-19T07:05:06;18.00;56.10
24744;DHT22;12844;52.110;5.548;2023-11-19T07:07:33;17.90;56.10
24744;DHT22;12844;52.110;5.548;2023-11-19T07:09:59;17.90;56.10
24744;DHT22;12844;52.110;5.548;2023-11-19T07:12:24;18.00;56.10
24744;DHT22;12844;52.110;5.548;2023-11-19T07:14:53;17.90;56.10
24744;DHT22;12844;52.110;5.548;2023-11-19T07:17:20;17.90;56.00
24744;DHT22;12844;52.110;5.548;2023-11-19T07:19:47;17.90;56.00
24744;DHT22;12844;52.110;5.548;2023-11-19T07:22:13;17.90;56.10
24744;DHT22;12844;52.110;5.548;2023-11-19T07:24:39;18.00;56.10
24744;DHT22;12844;52.110;5.548;2023-11-19T07:27:05;17.90;56.10
24744;DHT22;12844;52.110;5.548;2023-11-19T07:29:32;17.90;56.00
24744;DHT22;12844;52.110;5.548;2023-11-19T07:31:57;18.00;56.10
24744;DHT22;12844;52.110;5.548;2023-11-19T07:34:24;18.00;56.10
24744;DHT22;12844;52.110;5.548;2023-11-19T07:36:50;17.90;56.00
24744;DHT22;12844;52.110;5.548;2023-11-19T07:39:15;17.90;56.00
24744;DHT22;12844;52.110;5.548;2023-11-19T07:41:41;18.00;56.10
24744;DHT22;12844;52.110;5.548;2023-11-19T07:44:06;18.00;56.00
24744;DHT22;12844;52.110;5.548;2023-11-19T07:46:32;18.00;56.30
24744;DHT22;12844;52.110;5.548;2023-11-19T07:48:58;18.00;56.10
24744;DHT22;12844;52.110;5.548;2023-11-19T07:51:24;18.00;56.10
24744;DHT22;12844;52.110;5.548;2023-11-19T07:53:49;18.00;56.00
24744;DHT22;12844;52.110;5.548;2023-11-19T07:56:15;18.00;56.00
24744;DHT22;12844;52.110;5.548;2023-11-19T07:58:41;18.00;56.00
24744;DHT22;12844;52.110;5.548;2023-11-19T08:01:07;18.00;56.00
24744;DHT22;12844;52.110;5.548;2023-11-19T08:03:32;18.00;56.00
24744;DHT22;12844;52.110;5.548;2023-11-19T08:06:00;18.00;56.00
24744;DHT22;12844;52.110;5.548;2023-11-19T08:08:26;18.00;56.00
24744;DHT22;12844;52.110;5.548;2023-11-19T08:10:52;18.00;56.00
24744;DHT22;12844;52.110;5.548;2023-11-19T08:13:19;18.00;56.00
24744;DHT22;12844;52.110;5.548;2023-11-19T08:15:45;18.00;56.00
24744;DHT22;12844;52.110;5.548;2023-11-19T08:18:11;18.00;56.00
24744;DHT22;12844;52.110;5.548;2023-11-19T08:20:37;18.00;56.00
24744;DHT22;12844;52.110;5.548;2023-11-19T08:23:03;18.00;56.10
24744;DHT22;12844;52.110;5.548;2023-11-19T08:25:31;18.00;56.10
24744;DHT22;12844;52.110;5.548;2023-11-19T08:27:59;18.00;56.10
24744;DHT22;12844;52.110;5.548;2023-11-19T08:47:57;17.90;56.10
24744;DHT22;12844;52.110;5.548;2023-11-19T08:50:22;18.00;56.20
24744;DHT22;12844;52.110;5.548;2023-11-19T08:52:49;18.00;56.10
24744;DHT22;12844;52.110;5.548;2023-11-19T08:55:14;18.00;56.10
24744;DHT22;12844;52.110;5.548;2023-11-19T08:57:40;18.00;56.10
24744;DHT22;12844;52.110;5.548;2023-11-19T09:00:06;18.00;56.80
24744;DHT22;12844;52.110;5.548;2023-11-19T09:02:37;18.00;56.20
24744;DHT22;12844;52.110;5.548;2023-11-19T09:05:04;18.00;56.20
24744;DHT22;12844;52.110;5.548;2023-11-19T09:07:31;18.00;56.10
24744;DHT22;12844;52.110;5.548;2023-11-19T09:09:56;18.00;56.10
24744;DHT22;12844;52.110;5.548;2023-11-19T09:12:22;18.00;56.10
24744;DHT22;12844;52.110;5.548;2023-11-19T09:14:47;18.00;56.10
24744;DHT22;12844;52.110;5.548;2023-11-19T09:17:15;18.00;56.10
24744;DHT22;12844;52.110;5.548;2023-11-19T09:19:41;18.10;56.10
24744;DHT22;12844;52.110;5.548;2023-11-19T09:22:07;18.00;56.10
24744;DHT22;12844;52.110;5.548;2023-11-19T09:24:32;18.10;56.10
24744;DHT22;12844;52.110;5.548;2023-11-19T09:26:58;18.10;56.10
24744;DHT22;12844;52.110;5.548;2023-11-19T09:29:23;18.00;56.10
24744;DHT22;12844;52.110;5.548;2023-11-19T09:31:49;18.10;56.10
24744;DHT22;12844;52.110;5.548;2023-11-19T09:34:15;18.00;56.70
24744;DHT22;12844;52.110;5.548;2023-11-19T09:36:40;18.10;56.20
24744;DHT22;12844;52.110;5.548;2023-11-19T09:39:10;18.00;56.10
24744;DHT22;12844;52.110;5.548;2023-11-19T09:41:35;18.10;56.10
24744;DHT22;12844;52.110;5.548;2023-11-19T09:44:01;18.00;56.10
24744;DHT22;12844;52.110;5.548;2023-11-19T09:46:27;18.00;56.10
24744;DHT22;12844;52.110;5.548;2023-11-19T09:48:53;18.10;56.10
24744;DHT22;12844;52.110;5.548;2023-11-19T09:51:20;18.00;56.10
24744;DHT22;12844;52.110;5.548;2023-11-19T09:53:45;18.10;56.10
24744;DHT22;12844;52.110;5.548;2023-11-19T09:56:12;18.10;56.10
24744;DHT22;12844;52.110;5.548;2023-11-19T09:58:38;18.00;56.10
24744;DHT22;12844;52.110;5.548;2023-11-19T10:01:04;18.10;56.10
24744;DHT22;12844;52.110;5.548;2023-11-19T10:03:33;18.10;56.10
24744;DHT22;12844;52.110;5.548;2023-11-19T10:06:03;18.00;56.10
24744;DHT22;12844;52.110;5.548;2023-11-19T10:08:29;18.10;56.10
24744;DHT22;12844;52.110;5.548;2023-11-19T10:10:55;18.10;56.10
24744;DHT22;12844;52.110;5.548;2023-11-19T10:13:26;18.10;56.10
24744;DHT22;12844;52.110;5.548;2023-11-19T10:15:53;18.10;56.10
24744;DHT22;12844;52.110;5.548;2023-11-19T10:18:23;18.10;56.10
24744;DHT22;12844;52.110;5.548;2023-11-19T10:20:49;18.10;56.10
24744;DHT22;12844;52.110;5.548;2023-11-19T10:23:14;18.10;56.10
24744;DHT22;12844;52.110;5.548;2023-11-19T10:25:40;18.00;56.10
24744;DHT22;12844;52.110;5.548;2023-11-19T10:28:05;18.10;56.20
24744;DHT22;12844;52.110;5.548;2023-11-19T10:30:31;18.10;56.20
24744;DHT22;12844;52.110;5.548;2023-11-19T10:33:13;18.10;56.20
24744;DHT22;12844;52.110;5.548;2023-11-19T10:35:55;18.10;56.20
24744;DHT22;12844;52.110;5.548;2023-11-19T10:38:25;18.10;56.30
24744;DHT22;12844;52.110;5.548;2023-11-19T10:40:52;18.10;56.20
24744;DHT22;12844;52.110;5.548;2023-11-19T10:43:21;18.10;56.20
24744;DHT22;12844;52.110;5.548;2023-11-19T10:45:48;18.10;56.20
24744;DHT22;12844;52.110;5.548;2023-11-19T10:48:14;18.10;56.20
24744;DHT22;12844;52.110;5.548;2023-11-19T10:50:43;18.10;56.20
24744;DHT22;12844;52.110;5.548;2023-11-19T10:53:10;18.10;56.20
24744;DHT22;12844;52.110;5.548;2023-11-19T10:55:38;18.10;56.20
24744;DHT22;12844;52.110;5.548;2023-11-19T10:58:06;18.10;56.10
24744;DHT22;12844;52.110;5.548;2023-11-19T11:00:51;18.10;56.10
24744;DHT22;12844;52.110;5.548;2023-11-19T11:03:19;18.10;56.10
24744;DHT22;12844;52.110;5.548;2023-11-19T11:05:50;18.10;56.10
24744;DHT22;12844;52.110;5.548;2023-11-19T11:08:16;18.10;56.10
24744;DHT22;12844;52.110;5.548;2023-11-19T11:10:44;18.10;56.70
24744;DHT22;12844;52.110;5.548;2023-11-19T11:13:11;18.10;56.10
24744;DHT22;12844;52.110;5.548;2023-11-19T11:15:39;18.10;56.10
24744;DHT22;12844;52.110;5.548;2023-11-19T11:18:08;18.20;56.10
24744;DHT22;12844;52.110;5.548;2023-11-19T11:20:35;18.20;56.10
24744;DHT22;12844;52.110;5.548;2023-11-19T11:23:37;18.20;56.10
24744;DHT22;12844;52.110;5.548;2023-11-19T11:26:29;18.20;56.00
24744;DHT22;12844;52.110;5.548;2023-11-19T11:29:20;18.10;56.10
24744;DHT22;12844;52.110;5.548;2023-11-19T11:39:57;18.10;56.20
24744;DHT22;12844;52.110;5.548;2023-11-19T11:45:09;18.10;56.20
24744;DHT22;12844;52.110;5.548;2023-11-19T11:50:16;18.10;56.20
24744;DHT22;12844;52.110;5.548;2023-11-19T11:55:36;18.10;56.20
24744;DHT22;12844;52.110;5.548;2023-11-19T11:58:05;18.10;56.20
24744;DHT22;12844;52.110;5.548;2023-11-19T12:00:32;18.10;56.20
24744;DHT22;12844;52.110;5.548;2023-11-19T12:03:04;18.10;56.20
24744;DHT22;12844;52.110;5.548;2023-11-19T12:05:30;18.10;56.20
24744;DHT22;12844;52.110;5.548;2023-11-19T12:08:01;18.20;56.20
24744;DHT22;12844;52.110;5.548;2023-11-19T12:10:31;18.10;56.10
24744;DHT22;12844;52.110;5.548;2023-11-19T12:13:01;18.10;56.10
24744;DHT22;12844;52.110;5.548;2023-11-19T12:15:27;18.10;56.10
24744;DHT22;12844;52.110;5.548;2023-11-19T12:17:54;18.10;56.10
24744;DHT22;12844;52.110;5.548;2023-11-19T12:20:22;18.10;56.10
24744;DHT22;12844;52.110;5.548;2023-11-19T12:22:48;18.10;56.10
24744;DHT22;12844;52.110;5.548;2023-11-19T12:25:15;18.10;56.10
24744;DHT22;12844;52.110;5.548;2023-11-19T12:27:51;18.20;56.20
24744;DHT22;12844;52.110;5.548;2023-11-19T12:30:26;18.20;56.10
24744;DHT22;12844;52.110;5.548;2023-11-19T12:32:54;18.10;56.10
24744;DHT22;12844;52.110;5.548;2023-11-19T12:35:20;18.10;56.10
24744;DHT22;12844;52.110;5.548;2023-11-19T12:37:47;18.10;56.10
24744;DHT22;12844;52.110;5.548;2023-11-19T12:40:21;18.10;56.10
24744;DHT22;12844;52.110;5.548;2023-11-19T12:42:48;18.10;56.10
24744;DHT22;12844;52.110;5.548;2023-11-19T12:45:14;18.10;56.20
24744;DHT22;12844;52.110;5.548;2023-11-19T12:47:40;18.10;56.10
24744;DHT22;12844;52.110;5.548;2023-11-19T12:50:07;18.10;56.20
24744;DHT22;12844;52.110;5.548;2023-11-19T12:52:37;18.10;56.10
24744;DHT22;12844;52.110;5.548;2023-11-19T12:55:29;18.10;56.10
24744;DHT22;12844;52.110;5.548;2023-11-19T12:57:55;18.10;56.10
24744;DHT22;12844;52.110;5.548;2023-11-19T13:00:22;18.10;56.20
24744;DHT22;12844;52.110;5.548;2023-11-19T13:02:50;18.10;56.20
24744;DHT22;12844;52.110;5.548;2023-11-19T13:07:48;18.10;56.20
24744;DHT22;12844;52.110;5.548;2023-11-19T13:10:14;18.10;56.20
24744;DHT22;12844;52.110;5.548;2023-11-19T13:12:40;18.10;56.30
24744;DHT22;12844;52.110;5.548;2023-11-19T13:15:06;18.10;56.20
24744;DHT22;12844;52.110;5.548;2023-11-19T13:17:32;18.10;56.20
24744;DHT22;12844;52.110;5.548;2023-11-19T13:19:57;18.10;56.20
24744;DHT22;12844;52.110;5.548;2023-11-19T13:22:23;18.10;56.30
24744;DHT22;12844;52.110;5.548;2023-11-19T13:24:48;18.10;56.30
24744;DHT22;12844;52.110;5.548;2023-11-19T13:27:14;18.10;56.30
24744;DHT22;12844;52.110;5.548;2023-11-19T13:29:39;18.10;56.30
24744;DHT22;12844;52.110;5.548;2023-11-19T13:32:05;18.10;56.30
24744;DHT22;12844;52.110;5.548;2023-11-19T13:34:31;18.10;56.30
24744;DHT22;12844;52.110;5.548;2023-11-19T13:36:56;18.10;56.30
24744;DHT22;12844;52.110;5.548;2023-11-19T13:39:22;18.00;56.60
24744;DHT22;12844;52.110;5.548;2023-11-19T13:41:49;18.10;56.40
24744;DHT22;12844;52.110;5.548;2023-11-19T13:44:16;18.10;56.40
24744;DHT22;12844;52.110;5.548;2023-11-19T13:46:44;18.10;56.40
24744;DHT22;12844;52.110;5.548;2023-11-19T13:49:10;18.10;56.40
24744;DHT22;12844;52.110;5.548;2023-11-19T13:51:35;18.10;56.40
24744;DHT22;12844;52.110;5.548;2023-11-19T13:54:01;18.10;56.40
24744;DHT22;12844;52.110;5.548;2023-11-19T13:56:26;18.10;56.40
24744;DHT22;12844;52.110;5.548;2023-11-19T13:58:53;18.10;56.30
24744;DHT22;12844;52.110;5.548;2023-11-19T14:01:19;18.10;56.40
24744;DHT22;12844;52.110;5.548;2023-11-19T14:03:44;18.10;56.40
24744;DHT22;12844;52.110;5.548;2023-11-19T14:06:10;18.10;56.40
24744;DHT22;12844;52.110;5.548;2023-11-19T14:08:37;18.10;56.40
24744;DHT22;12844;52.110;5.548;2023-11-19T14:11:02;18.10;56.40
24744;DHT22;12844;52.110;5.548;2023-11-19T14:13:28;18.10;56.40
24744;DHT22;12844;52.110;5.548;2023-11-19T14:15:54;18.10;56.40
24744;DHT22;12844;52.110;5.548;2023-11-19T14:18:19;18.10;56.40
24744;DHT22;12844;52.110;5.548;2023-11-19T14:20:45;18.10;56.40
24744;DHT22;12844;52.110;5.548;2023-11-19T14:23:11;18.10;56.40
24744;DHT22;12844;52.110;5.548;2023-11-19T14:25:36;18.10;56.40
24744;DHT22;12844;52.110;5.548;2023-11-19T14:28:02;18.10;56.30
24744;DHT22;12844;52.110;5.548;2023-11-19T14:30:27;18.10;56.30
24744;DHT22;12844;52.110;5.548;2023-11-19T14:32:53;18.10;56.30
24744;DHT22;12844;52.110;5.548;2023-11-19T14:35:19;18.10;56.40
24744;DHT22;12844;52.110;5.548;2023-11-19T14:37:45;18.00;56.30
24744;DHT22;12844;52.110;5.548;2023-11-19T14:40:11;18.10;56.40
24744;DHT22;12844;52.110;5.548;2023-11-19T14:42:37;18.10;57.00
24744;DHT22;12844;52.110;5.548;2023-11-19T14:45:04;18.10;56.40
24744;DHT22;12844;52.110;5.548;2023-11-19T14:47:30;18.10;56.50
24744;DHT22;12844;52.110;5.548;2023-11-19T14:49:56;18.00;56.30
24744;DHT22;12844;52.110;5.548;2023-11-19T14:52:21;18.10;56.40
24744;DHT22;12844;52.110;5.548;2023-11-19T14:54:47;18.10;56.30
24744;DHT22;12844;52.110;5.548;2023-11-19T14:57:13;18.10;57.00
24744;DHT22;12844;52.110;5.548;2023-11-19T14:59:39;18.10;56.40
24744;DHT22;12844;52.110;5.548;2023-11-19T15:02:05;18.10;56.40
24744;DHT22;12844;52.110;5.548;2023-11-19T15:04:33;18.00;56.30
24744;DHT22;12844;52.110;5.548;2023-11-19T15:07:00;18.00;56.30
24744;DHT22;12844;52.110;5.548;2023-11-19T15:09:26;18.00;56.30
24744;DHT22;12844;52.110;5.548;2023-11-19T15:11:55;18.00;56.40
24744;DHT22;12844;52.110;5.548;2023-11-19T15:14:21;18.00;56.30
24744;DHT22;12844;52.110;5.548;2023-11-19T15:16:47;18.10;56.40
24744;DHT22;12844;52.110;5.548;2023-11-19T15:19:13;18.00;56.40
24744;DHT22;12844;52.110;5.548;2023-11-19T15:21:40;18.00;56.40
24744;DHT22;12844;52.110;5.548;2023-11-19T15:24:06;18.00;56.40
24744;DHT22;12844;52.110;5.548;2023-11-19T15:26:34;18.00;56.40
24744;DHT22;12844;52.110;5.548;2023-11-19T15:28:59;18.00;56.40
24744;DHT22;12844;52.110;5.548;2023-11-19T15:31:25;18.00;56.40
24744;DHT22;12844;52.110;5.548;2023-11-19T15:33:50;18.00;56.40
24744;DHT22;12844;52.110;5.548;2023-11-19T15:36:17;18.00;56.40
24744;DHT22;12844;52.110;5.548;2023-11-19T15:38:43;18.00;56.40
24744;DHT22;12844;52.110;5.548;2023-11-19T15:41:09;18.00;56.40
24744;DHT22;12844;52.110;5.548;2023-11-19T15:43:34;18.00;56.40
24744;DHT22;12844;52.110;5.548;2023-11-19T15:46:00;18.00;56.40
24744;DHT22;12844;52.110;5.548;2023-11-19T15:48:26;18.00;56.40
24744;DHT22;12844;52.110;5.548;2023-11-19T15:50:52;18.00;56.40
24744;DHT22;12844;52.110;5.548;2023-11-19T15:53:18;18.00;56.40
24744;DHT22;12844;52.110;5.548;2023-11-19T15:55:44;18.00;56.40
24744;DHT22;12844;52.110;5.548;2023-11-19T15:58:10;18.00;56.40
24744;DHT22;12844;52.110;5.548;2023-11-19T16:00:36;18.00;56.30
24744;DHT22;12844;52.110;5.548;2023-11-19T16:03:02;18.00;56.30